sensor_id;sensor_type;location;lat;lon;timestamp;temperature;humidity
67572;SHT31;54397;47.506;19.158;2023-04-24T00:00:56;15.71;56.08
67572;SHT31;54397;47.506;19.158;2023-04-24T00:04:18;15.51;57.02
67572;SHT31;54397;47.506;19.158;2023-04-24T00:07:44;15.53;57.68
67572;SHT31;54397;47.506;19.158;2023-04-24T00:11:08;15.47;57.24
67572;SHT31;54397;47.506;19.158;2023-04-24T00:14:32;15.46;57.46
67572;SHT31;54397;47.506;19.158;2023-04-24T00:17:54;15.30;57.40
67572;SHT31;54397;47.506;19.158;2023-04-24T00:21:16;15.39;57.67
67572;SHT31;54397;47.506;19.158;2023-04-24T00:24:39;15.47;57.20
67572;SHT31;54397;47.506;19.158;2023-04-24T00:28:03;15.54;56.53
67572;SHT31;54397;47.506;19.158;2023-04-24T00:31:25;15.66;57.20
67572;SHT31;54397;47.506;19.158;2023-04-24T00:34:47;15.64;57.66
67572;SHT31;54397;47.506;19.158;2023-04-24T00:38:08;15.60;58.12
67572;SHT31;54397;47.506;19.158;2023-04-24T00:41:30;15.40;58.24
67572;SHT31;54397;47.506;19.158;2023-04-24T00:44:51;15.66;55.64
67572;SHT31;54397;47.506;19.158;2023-04-24T00:48:14;15.61;56.01
67572;SHT31;54397;47.506;19.158;2023-04-24T00:51:36;15.70;54.65
67572;SHT31;54397;47.506;19.158;2023-04-24T00:55:02;15.87;54.56
67572;SHT31;54397;47.506;19.158;2023-04-24T00:58:24;15.93;54.66
67572;SHT31;54397;47.506;19.158;2023-04-24T01:01:46;15.93;54.70
67572;SHT31;54397;47.506;19.158;2023-04-24T01:05:08;15.83;54.35
67572;SHT31;54397;47.506;19.158;2023-04-24T01:08:30;15.80;54.22
67572;SHT31;54397;47.506;19.158;2023-04-24T01:11:52;15.87;54.77
67572;SHT31;54397;47.506;19.158;2023-04-24T01:15:16;15.87;55.23
67572;SHT31;54397;47.506;19.158;2023-04-24T01:18:38;15.81;54.98
67572;SHT31;54397;47.506;19.158;2023-04-24T01:22:01;15.78;54.81
67572;SHT31;54397;47.506;19.158;2023-04-24T01:25:24;15.80;54.71
67572;SHT31;54397;47.506;19.158;2023-04-24T01:28:49;15.71;55.14
67572;SHT31;54397;47.506;19.158;2023-04-24T01:32:11;15.51;55.79
67572;SHT31;54397;47.506;19.158;2023-04-24T01:35:36;15.47;56.02
67572;SHT31;54397;47.506;19.158;2023-04-24T01:38:58;15.57;56.88
67572;SHT31;54397;47.506;19.158;2023-04-24T01:42:20;15.46;56.34
67572;SHT31;54397;47.506;19.158;2023-04-24T01:45:42;15.32;56.33
67572;SHT31;54397;47.506;19.158;2023-04-24T01:49:03;15.29;56.46
67572;SHT31;54397;47.506;19.158;2023-04-24T01:52:25;15.32;57.41
67572;SHT31;54397;47.506;19.158;2023-04-24T01:55:49;15.37;56.58
67572;SHT31;54397;47.506;19.158;2023-04-24T01:59:19;15.46;56.21
67572;SHT31;54397;47.506;19.158;2023-04-24T02:02:42;15.56;56.28
67572;SHT31;54397;47.506;19.158;2023-04-24T02:06:08;15.42;56.76
67572;SHT31;54397;47.506;19.158;2023-04-24T02:09:32;15.42;57.00
67572;SHT31;54397;47.506;19.158;2023-04-24T02:12:56;15.33;59.35
67572;SHT31;54397;47.506;19.158;2023-04-24T02:16:20;15.10;62.43
67572;SHT31;54397;47.506;19.158;2023-04-24T02:19:45;14.99;64.23
67572;SHT31;54397;47.506;19.158;2023-04-24T02:23:07;14.67;63.97
67572;SHT31;54397;47.506;19.158;2023-04-24T02:26:28;14.72;63.27
67572;SHT31;54397;47.506;19.158;2023-04-24T02:29:51;14.58;64.17
67572;SHT31;54397;47.506;19.158;2023-04-24T02:33:12;14.56;64.91
67572;SHT31;54397;47.506;19.158;2023-04-24T02:36:37;14.54;65.09
67572;SHT31;54397;47.506;19.158;2023-04-24T02:40:00;14.38;66.18
67572;SHT31;54397;47.506;19.158;2023-04-24T02:43:22;14.57;68.11
67572;SHT31;54397;47.506;19.158;2023-04-24T02:46:46;14.57;67.23
67572;SHT31;54397;47.506;19.158;2023-04-24T02:50:09;14.67;67.07
67572;SHT31;54397;47.506;19.158;2023-04-24T02:53:35;14.92;67.55
67572;SHT31;54397;47.506;19.158;2023-04-24T02:57:01;15.02;67.62
67572;SHT31;54397;47.506;19.158;2023-04-24T03:00:26;14.84;67.07
67572;SHT31;54397;47.506;19.158;2023-04-24T03:03:50;14.85;67.45
67572;SHT31;54397;47.506;19.158;2023-04-24T03:07:14;14.68;68.70
67572;SHT31;54397;47.506;19.158;2023-04-24T03:10:36;14.54;69.04
67572;SHT31;54397;47.506;19.158;2023-04-24T03:13:58;14.60;69.92
67572;SHT31;54397;47.506;19.158;2023-04-24T03:17:25;14.67;69.73
67572;SHT31;54397;47.506;19.158;2023-04-24T03:20:49;14.54;72.66
67572;SHT31;54397;47.506;19.158;2023-04-24T03:24:10;14.41;73.00
67572;SHT31;54397;47.506;19.158;2023-04-24T03:27:32;14.48;72.65
67572;SHT31;54397;47.506;19.158;2023-04-24T03:30:56;14.64;72.29
67572;SHT31;54397;47.506;19.158;2023-04-24T03:34:18;14.81;72.86
67572;SHT31;54397;47.506;19.158;2023-04-24T03:37:42;14.79;72.38
67572;SHT31;54397;47.506;19.158;2023-04-24T03:41:06;14.65;71.81
67572;SHT31;54397;47.506;19.158;2023-04-24T03:44:28;14.56;71.64
67572;SHT31;54397;47.506;19.158;2023-04-24T03:47:49;14.41;73.07
67572;SHT31;54397;47.506;19.158;2023-04-24T03:51:11;14.43;71.65
67572;SHT31;54397;47.506;19.158;2023-04-24T03:54:37;14.58;72.52
67572;SHT31;54397;47.506;19.158;2023-04-24T03:57:59;14.52;71.48
67572;SHT31;54397;47.506;19.158;2023-04-24T04:01:25;14.52;72.11
67572;SHT31;54397;47.506;19.158;2023-04-24T04:04:49;14.67;72.16
67572;SHT31;54397;47.506;19.158;2023-04-24T04:08:11;14.56;73.20
67572;SHT31;54397;47.506;19.158;2023-04-24T04:11:35;14.31;74.16
67572;SHT31;54397;47.506;19.158;2023-04-24T04:14:57;14.58;72.62
67572;SHT31;54397;47.506;19.158;2023-04-24T04:18:21;14.61;74.04
67572;SHT31;54397;47.506;19.158;2023-04-24T04:21:43;14.58;74.90
67572;SHT31;54397;47.506;19.158;2023-04-24T04:25:07;14.72;73.60
67572;SHT31;54397;47.506;19.158;2023-04-24T04:28:30;14.71;73.88
67572;SHT31;54397;47.506;19.158;2023-04-24T04:31:54;14.60;74.98
67572;SHT31;54397;47.506;19.158;2023-04-24T04:35:16;14.78;74.28
67572;SHT31;54397;47.506;19.158;2023-04-24T04:38:38;14.81;73.34
67572;SHT31;54397;47.506;19.158;2023-04-24T04:42:03;14.93;71.81
67572;SHT31;54397;47.506;19.158;2023-04-24T04:45:25;14.77;71.19
67572;SHT31;54397;47.506;19.158;2023-04-24T04:48:48;14.72;72.76
67572;SHT31;54397;47.506;19.158;2023-04-24T04:52:10;14.60;70.59
67572;SHT31;54397;47.506;19.158;2023-04-24T04:55:32;14.70;70.48
67572;SHT31;54397;47.506;19.158;2023-04-24T04:58:56;14.52;70.87
67572;SHT31;54397;47.506;19.158;2023-04-24T05:02:17;14.56;71.11
67572;SHT31;54397;47.506;19.158;2023-04-24T05:05:43;14.67;70.79
67572;SHT31;54397;47.506;19.158;2023-04-24T05:09:08;14.81;69.43
67572;SHT31;54397;47.506;19.158;2023-04-24T05:12:29;14.79;69.57
67572;SHT31;54397;47.506;19.158;2023-04-24T05:15:51;14.70;69.02
67572;SHT31;54397;47.506;19.158;2023-04-24T05:19:16;14.74;68.56
67572;SHT31;54397;47.506;19.158;2023-04-24T05:22:37;14.88;68.57
67572;SHT31;54397;47.506;19.158;2023-04-24T05:25:59;14.71;67.74
67572;SHT31;54397;47.506;19.158;2023-04-24T05:29:21;14.78;68.19
67572;SHT31;54397;47.506;19.158;2023-04-24T05:32:47;14.93;67.85
67572;SHT31;54397;47.506;19.158;2023-04-24T05:36:09;15.05;67.48
67572;SHT31;54397;47.506;19.158;2023-04-24T05:39:33;15.06;67.37
67572;SHT31;54397;47.506;19.158;2023-04-24T05:42:54;14.82;67.61
67572;SHT31;54397;47.506;19.158;2023-04-24T05:46:16;14.84;67.34
67572;SHT31;54397;47.506;19.158;2023-04-24T05:49:40;14.96;67.37
67572;SHT31;54397;47.506;19.158;2023-04-24T05:53:02;15.16;67.38
67572;SHT31;54397;47.506;19.158;2023-04-24T05:56:28;15.20;66.89
67572;SHT31;54397;47.506;19.158;2023-04-24T05:59:50;15.15;66.18
67572;SHT31;54397;47.506;19.158;2023-04-24T06:03:14;15.29;66.13
67572;SHT31;54397;47.506;19.158;2023-04-24T06:06:37;15.19;65.97
67572;SHT31;54397;47.506;19.158;2023-04-24T06:10:01;15.16;66.59
67572;SHT31;54397;47.506;19.158;2023-04-24T06:13:25;15.32;66.59
67572;SHT31;54397;47.506;19.158;2023-04-24T06:16:49;15.33;66.42
67572;SHT31;54397;47.506;19.158;2023-04-24T06:20:11;15.16;67.32
67572;SHT31;54397;47.506;19.158;2023-04-24T06:23:33;15.35;66.80
67572;SHT31;54397;47.506;19.158;2023-04-24T06:26:57;15.83;65.53
67572;SHT31;54397;47.506;19.158;2023-04-24T06:30:21;16.08;64.84
67572;SHT31;54397;47.506;19.158;2023-04-24T06:33:48;16.18;64.25
67572;SHT31;54397;47.506;19.158;2023-04-24T06:37:09;16.05;65.39
67572;SHT31;54397;47.506;19.158;2023-04-24T06:40:31;15.30;66.38
67572;SHT31;54397;47.506;19.158;2023-04-24T06:43:55;15.30;67.18
67572;SHT31;54397;47.506;19.158;2023-04-24T06:47:17;15.19;67.76
67572;SHT31;54397;47.506;19.158;2023-04-24T06:50:39;15.26;69.83
67572;SHT31;54397;47.506;19.158;2023-04-24T06:54:04;15.20;70.71
67572;SHT31;54397;47.506;19.158;2023-04-24T06:57:25;14.99;71.44
67572;SHT31;54397;47.506;19.158;2023-04-24T07:00:47;14.99;71.76
67572;SHT31;54397;47.506;19.158;2023-04-24T07:04:11;15.02;72.89
67572;SHT31;54397;47.506;19.158;2023-04-24T07:07:34;14.92;73.33
67572;SHT31;54397;47.506;19.158;2023-04-24T07:11:01;14.98;74.15
67572;SHT31;54397;47.506;19.158;2023-04-24T07:14:23;15.16;73.98
67572;SHT31;54397;47.506;19.158;2023-04-24T07:17:50;15.33;74.12
67572;SHT31;54397;47.506;19.158;2023-04-24T07:21:12;15.22;73.31
67572;SHT31;54397;47.506;19.158;2023-04-24T07:24:34;15.09;73.92
67572;SHT31;54397;47.506;19.158;2023-04-24T07:27:55;14.96;74.46
67572;SHT31;54397;47.506;19.158;2023-04-24T07:31:17;15.05;74.89
67572;SHT31;54397;47.506;19.158;2023-04-24T07:34:43;15.06;74.40
67572;SHT31;54397;47.506;19.158;2023-04-24T07:38:05;15.26;74.17
67572;SHT31;54397;47.506;19.158;2023-04-24T07:41:27;15.42;73.61
67572;SHT31;54397;47.506;19.158;2023-04-24T07:44:49;15.27;73.85
67572;SHT31;54397;47.506;19.158;2023-04-24T07:48:12;15.36;73.80
67572;SHT31;54397;47.506;19.158;2023-04-24T07:51:36;15.42;73.49
67572;SHT31;54397;47.506;19.158;2023-04-24T07:55:02;15.60;73.25
67572;SHT31;54397;47.506;19.158;2023-04-24T07:58:26;15.44;72.77
67572;SHT31;54397;47.506;19.158;2023-04-24T08:01:50;15.61;73.29
67572;SHT31;54397;47.506;19.158;2023-04-24T08:05:17;15.68;73.64
67572;SHT31;54397;47.506;19.158;2023-04-24T08:08:40;15.71;73.37
67572;SHT31;54397;47.506;19.158;2023-04-24T08:12:01;15.80;71.94
67572;SHT31;54397;47.506;19.158;2023-04-24T08:15:24;15.98;72.30
67572;SHT31;54397;47.506;19.158;2023-04-24T08:18:48;16.00;73.02
67572;SHT31;54397;47.506;19.158;2023-04-24T08:22:12;16.33;72.33
67572;SHT31;54397;47.506;19.158;2023-04-24T08:25:34;16.59;70.44
67572;SHT31;54397;47.506;19.158;2023-04-24T08:28:58;16.73;69.82
67572;SHT31;54397;47.506;19.158;2023-04-24T08:32:20;16.84;70.42
67572;SHT31;54397;47.506;19.158;2023-04-24T08:35:44;16.95;68.82
67572;SHT31;54397;47.506;19.158;2023-04-24T08:39:06;17.10;69.64
67572;SHT31;54397;47.506;19.158;2023-04-24T08:42:28;17.24;69.22
67572;SHT31;54397;47.506;19.158;2023-04-24T08:45:55;17.50;66.48
67572;SHT31;54397;47.506;19.158;2023-04-24T08:49:18;17.21;67.08
67572;SHT31;54397;47.506;19.158;2023-04-24T08:52:42;17.53;66.45
67572;SHT31;54397;47.506;19.158;2023-04-24T08:56:05;17.97;64.77
67572;SHT31;54397;47.506;19.158;2023-04-24T08:59:30;18.27;63.83
67572;SHT31;54397;47.506;19.158;2023-04-24T09:02:53;18.07;63.82
67572;SHT31;54397;47.506;19.158;2023-04-24T09:06:21;18.28;64.49
67572;SHT31;54397;47.506;19.158;2023-04-24T09:09:44;18.75;61.53
67572;SHT31;54397;47.506;19.158;2023-04-24T09:13:08;18.96;60.71
67572;SHT31;54397;47.506;19.158;2023-04-24T09:16:31;19.38;59.80
67572;SHT31;54397;47.506;19.158;2023-04-24T09:19:57;19.54;57.88
67572;SHT31;54397;47.506;19.158;2023-04-24T09:23:21;19.45;57.74
67572;SHT31;54397;47.506;19.158;2023-04-24T09:26:43;19.68;58.15
67572;SHT31;54397;47.506;19.158;2023-04-24T09:30:06;19.50;56.45
67572;SHT31;54397;47.506;19.158;2023-04-24T09:33:34;19.66;56.45
67572;SHT31;54397;47.506;19.158;2023-04-24T09:36:55;19.92;55.82
67572;SHT31;54397;47.506;19.158;2023-04-24T09:40:19;20.20;53.75
67572;SHT31;54397;47.506;19.158;2023-04-24T09:43:46;19.82;54.57
67572;SHT31;54397;47.506;19.158;2023-04-24T09:47:12;19.57;55.99
67572;SHT31;54397;47.506;19.158;2023-04-24T09:50:34;19.53;56.30
67572;SHT31;54397;47.506;19.158;2023-04-24T09:53:56;20.00;55.45
67572;SHT31;54397;47.506;19.158;2023-04-24T09:57:20;20.22;53.08
67572;SHT31;54397;47.506;19.158;2023-04-24T10:00:41;20.14;54.28
67572;SHT31;54397;47.506;19.158;2023-04-24T10:04:03;20.20;54.19
67572;SHT31;54397;47.506;19.158;2023-04-24T10:07:28;20.02;54.85
67572;SHT31;54397;47.506;19.158;2023-04-24T10:10:55;20.17;55.08
67572;SHT31;54397;47.506;19.158;2023-04-24T10:14:20;20.19;54.68
67572;SHT31;54397;47.506;19.158;2023-04-24T10:17:43;20.16;55.00
67572;SHT31;54397;47.506;19.158;2023-04-24T10:21:06;19.93;53.79
67572;SHT31;54397;47.506;19.158;2023-04-24T10:24:33;19.64;53.46
67572;SHT31;54397;47.506;19.158;2023-04-24T10:27:55;19.50;54.16
67572;SHT31;54397;47.506;19.158;2023-04-24T10:31:23;19.47;55.13
67572;SHT31;54397;47.506;19.158;2023-04-24T10:34:46;19.51;55.46
67572;SHT31;54397;47.506;19.158;2023-04-24T10:38:13;19.55;55.61
67572;SHT31;54397;47.506;19.158;2023-04-24T10:41:37;19.48;55.29
67572;SHT31;54397;47.506;19.158;2023-04-24T10:44:59;19.41;55.53
67572;SHT31;54397;47.506;19.158;2023-04-24T10:48:26;19.35;55.81
67572;SHT31;54397;47.506;19.158;2023-04-24T10:51:50;19.09;57.57
67572;SHT31;54397;47.506;19.158;2023-04-24T10:55:14;18.96;58.11
67572;SHT31;54397;47.506;19.158;2023-04-24T11:01:59;19.06;58.46
67572;SHT31;54397;47.506;19.158;2023-04-24T11:05:48;18.76;60.16
67572;SHT31;54397;47.506;19.158;2023-04-24T11:09:08;18.90;60.51
67572;SHT31;54397;47.506;19.158;2023-04-24T11:12:34;19.07;58.81
67572;SHT31;54397;47.506;19.158;2023-04-24T11:16:20;18.99;58.12
67572;SHT31;54397;47.506;19.158;2023-04-24T11:19:50;19.21;58.58
67572;SHT31;54397;47.506;19.158;2023-04-24T11:23:14;19.24;57.50
67572;SHT31;54397;47.506;19.158;2023-04-24T11:26:39;19.55;57.05
67572;SHT31;54397;47.506;19.158;2023-04-24T11:30:06;19.48;57.51
67572;SHT31;54397;47.506;19.158;2023-04-24T11:33:28;19.54;57.49
67572;SHT31;54397;47.506;19.158;2023-04-24T11:36:50;19.62;57.73
67572;SHT31;54397;47.506;19.158;2023-04-24T11:40:16;19.44;58.07
67572;SHT31;54397;47.506;19.158;2023-04-24T11:43:39;19.51;58.26
67572;SHT31;54397;47.506;19.158;2023-04-24T11:47:01;19.43;58.60
67572;SHT31;54397;47.506;19.158;2023-04-24T11:50:26;19.55;58.76
67572;SHT31;54397;47.506;19.158;2023-04-24T11:53:49;19.62;58.76
67572;SHT31;54397;47.506;19.158;2023-04-24T11:57:24;19.65;59.01
67572;SHT31;54397;47.506;19.158;2023-04-24T12:00:56;19.54;59.08
67572;SHT31;54397;47.506;19.158;2023-04-24T12:04:18;19.65;58.92
67572;SHT31;54397;47.506;19.158;2023-04-24T12:07:41;19.66;59.34
67572;SHT31;54397;47.506;19.158;2023-04-24T12:11:08;19.34;59.83
67572;SHT31;54397;47.506;19.158;2023-04-24T12:14:30;19.35;60.50
67572;SHT31;54397;47.506;19.158;2023-04-24T12:17:53;19.24;61.38
67572;SHT31;54397;47.506;19.158;2023-04-24T12:21:21;19.16;61.21
67572;SHT31;54397;47.506;19.158;2023-04-24T12:28:20;19.79;56.65
67572;SHT31;54397;47.506;19.158;2023-04-24T12:31:44;19.87;56.55
67572;SHT31;54397;47.506;19.158;2023-04-24T12:35:06;19.66;57.31
67572;SHT31;54397;47.506;19.158;2023-04-24T12:38:29;19.72;58.44
67572;SHT31;54397;47.506;19.158;2023-04-24T12:42:01;19.69;59.11
67572;SHT31;54397;47.506;19.158;2023-04-24T12:45:25;19.75;59.68
67572;SHT31;54397;47.506;19.158;2023-04-24T12:48:50;19.92;60.44
67572;SHT31;54397;47.506;19.158;2023-04-24T12:52:14;19.64;63.51
67572;SHT31;54397;47.506;19.158;2023-04-24T12:55:38;19.50;63.99
67572;SHT31;54397;47.506;19.158;2023-04-24T12:59:01;19.38;62.77
67572;SHT31;54397;47.506;19.158;2023-04-24T13:02:23;19.09;63.94
67572;SHT31;54397;47.506;19.158;2023-04-24T13:05:45;18.93;65.66
67572;SHT31;54397;47.506;19.158;2023-04-24T13:09:07;18.65;65.65
67572;SHT31;54397;47.506;19.158;2023-04-24T13:12:31;18.69;65.68
67572;SHT31;54397;47.506;19.158;2023-04-24T13:15:55;18.55;66.08
67572;SHT31;54397;47.506;19.158;2023-04-24T13:19:18;18.35;66.72
67572;SHT31;54397;47.506;19.158;2023-04-24T13:22:39;18.31;66.94
67572;SHT31;54397;47.506;19.158;2023-04-24T13:26:01;18.18;67.43
67572;SHT31;54397;47.506;19.158;2023-04-24T13:29:24;18.30;67.43
67572;SHT31;54397;47.506;19.158;2023-04-24T13:32:46;18.25;67.58
67572;SHT31;54397;47.506;19.158;2023-04-24T13:36:07;18.18;67.70
67572;SHT31;54397;47.506;19.158;2023-04-24T13:39:31;18.07;68.13
67572;SHT31;54397;47.506;19.158;2023-04-24T13:42:53;17.66;70.91
67572;SHT31;54397;47.506;19.158;2023-04-24T13:46:15;17.49;71.44
67572;SHT31;54397;47.506;19.158;2023-04-24T13:49:39;17.39;71.72
67572;SHT31;54397;47.506;19.158;2023-04-24T13:53:02;17.34;71.62
67572;SHT31;54397;47.506;19.158;2023-04-24T13:56:23;17.34;71.86
67572;SHT31;54397;47.506;19.158;2023-04-24T13:59:50;17.42;71.93
67572;SHT31;54397;47.506;19.158;2023-04-24T14:03:11;17.31;72.39
67572;SHT31;54397;47.506;19.158;2023-04-24T14:06:33;17.36;72.20
67572;SHT31;54397;47.506;19.158;2023-04-24T14:09:58;17.31;72.53
67572;SHT31;54397;47.506;19.158;2023-04-24T14:13:20;17.21;72.63
67572;SHT31;54397;47.506;19.158;2023-04-24T14:16:44;17.06;71.20
67572;SHT31;54397;47.506;19.158;2023-04-24T14:20:06;16.90;71.00
67572;SHT31;54397;47.506;19.158;2023-04-24T14:23:28;16.80;73.10
67572;SHT31;54397;47.506;19.158;2023-04-24T14:26:50;17.25;73.77
67572;SHT31;54397;47.506;19.158;2023-04-24T14:30:12;17.34;74.28
67572;SHT31;54397;47.506;19.158;2023-04-24T14:33:34;17.42;74.44
67572;SHT31;54397;47.506;19.158;2023-04-24T14:36:55;17.43;74.86
67572;SHT31;54397;47.506;19.158;2023-04-24T14:40:17;17.72;74.51
67572;SHT31;54397;47.506;19.158;2023-04-24T14:43:59;17.50;75.79
67572;SHT31;54397;47.506;19.158;2023-04-24T14:47:20;17.31;77.06
67572;SHT31;54397;47.506;19.158;2023-04-24T14:50:45;17.55;77.21
67572;SHT31;54397;47.506;19.158;2023-04-24T14:54:07;17.59;76.82
67572;SHT31;54397;47.506;19.158;2023-04-24T14:57:29;17.50;76.74
67572;SHT31;54397;47.506;19.158;2023-04-24T15:00:53;17.46;77.03
67572;SHT31;54397;47.506;19.158;2023-04-24T15:04:15;17.25;77.64
67572;SHT31;54397;47.506;19.158;2023-04-24T15:07:38;17.15;78.33
67572;SHT31;54397;47.506;19.158;2023-04-24T15:10:59;17.24;77.92
67572;SHT31;54397;47.506;19.158;2023-04-24T15:14:21;17.24;77.31
67572;SHT31;54397;47.506;19.158;2023-04-24T15:17:45;17.19;77.20
67572;SHT31;54397;47.506;19.158;2023-04-24T15:21:09;17.55;75.31
67572;SHT31;54397;47.506;19.158;2023-04-24T15:24:31;17.34;77.08
67572;SHT31;54397;47.506;19.158;2023-04-24T15:27:53;17.42;76.62
67572;SHT31;54397;47.506;19.158;2023-04-24T15:31:15;17.42;76.73
67572;SHT31;54397;47.506;19.158;2023-04-24T15:34:39;17.43;77.27
67572;SHT31;54397;47.506;19.158;2023-04-24T15:38:00;17.29;78.01
67572;SHT31;54397;47.506;19.158;2023-04-24T15:41:23;17.11;79.77
67572;SHT31;54397;47.506;19.158;2023-04-24T15:44:45;16.98;81.64
67572;SHT31;54397;47.506;19.158;2023-04-24T15:48:11;16.80;82.75
67572;SHT31;54397;47.506;19.158;2023-04-24T15:51:33;16.33;80.43
67572;SHT31;54397;47.506;19.158;2023-04-24T15:54:55;16.21;80.31
67572;SHT31;54397;47.506;19.158;2023-04-24T15:58:17;16.38;84.66
67572;SHT31;54397;47.506;19.158;2023-04-24T16:01:39;16.45;84.24
67572;SHT31;54397;47.506;19.158;2023-04-24T16:05:01;16.57;82.69
67572;SHT31;54397;47.506;19.158;2023-04-24T16:08:23;16.42;83.55
67572;SHT31;54397;47.506;19.158;2023-04-24T16:11:47;16.39;83.91
67572;SHT31;54397;47.506;19.158;2023-04-24T16:15:09;15.80;86.29
67572;SHT31;54397;47.506;19.158;2023-04-24T16:18:31;15.90;87.64
67572;SHT31;54397;47.506;19.158;2023-04-24T16:21:53;16.08;88.04
67572;SHT31;54397;47.506;19.158;2023-04-24T16:25:16;16.08;88.20
67572;SHT31;54397;47.506;19.158;2023-04-24T16:28:42;16.04;84.79
67572;SHT31;54397;47.506;19.158;2023-04-24T16:32:09;16.19;85.47
67572;SHT31;54397;47.506;19.158;2023-04-24T16:35:34;16.18;86.47
67572;SHT31;54397;47.506;19.158;2023-04-24T16:38:58;16.11;87.39
67572;SHT31;54397;47.506;19.158;2023-04-24T16:42:21;16.22;86.32
67572;SHT31;54397;47.506;19.158;2023-04-24T16:45:48;16.11;85.56
67572;SHT31;54397;47.506;19.158;2023-04-24T16:49:12;16.16;84.76
67572;SHT31;54397;47.506;19.158;2023-04-24T16:52:36;16.19;83.62
67572;SHT31;54397;47.506;19.158;2023-04-24T16:56:01;16.21;87.46
67572;SHT31;54397;47.506;19.158;2023-04-24T16:59:23;16.53;87.94
67572;SHT31;54397;47.506;19.158;2023-04-24T17:02:44;16.87;87.35
67572;SHT31;54397;47.506;19.158;2023-04-24T17:06:13;17.07;85.98
67572;SHT31;54397;47.506;19.158;2023-04-24T17:09:34;17.19;84.18
67572;SHT31;54397;47.506;19.158;2023-04-24T17:12:56;17.28;84.01
67572;SHT31;54397;47.506;19.158;2023-04-24T17:16:20;17.04;78.58
67572;SHT31;54397;47.506;19.158;2023-04-24T17:19:42;16.64;79.07
67572;SHT31;54397;47.506;19.158;2023-04-24T17:23:03;16.50;80.64
67572;SHT31;54397;47.506;19.158;2023-04-24T17:26:25;16.25;80.30
67572;SHT31;54397;47.506;19.158;2023-04-24T17:29:47;16.05;82.00
67572;SHT31;54397;47.506;19.158;2023-04-24T17:33:10;15.61;82.21
67572;SHT31;54397;47.506;19.158;2023-04-24T17:36:32;15.84;81.86
67572;SHT31;54397;47.506;19.158;2023-04-24T17:39:56;15.83;83.04
67572;SHT31;54397;47.506;19.158;2023-04-24T17:43:21;15.78;84.30
67572;SHT31;54397;47.506;19.158;2023-04-24T17:46:46;15.74;84.49
67572;SHT31;54397;47.506;19.158;2023-04-24T17:50:10;15.81;83.16
67572;SHT31;54397;47.506;19.158;2023-04-24T17:53:33;16.01;82.11
67572;SHT31;54397;47.506;19.158;2023-04-24T17:56:57;15.71;82.02
67572;SHT31;54397;47.506;19.158;2023-04-24T18:00:19;15.88;82.83
67572;SHT31;54397;47.506;19.158;2023-04-24T18:03:44;15.85;83.59
67572;SHT31;54397;47.506;19.158;2023-04-24T18:07:06;15.80;84.00
67572;SHT31;54397;47.506;19.158;2023-04-24T18:10:29;15.57;82.03
67572;SHT31;54397;47.506;19.158;2023-04-24T18:13:54;15.46;83.12
67572;SHT31;54397;47.506;19.158;2023-04-24T18:17:18;15.50;83.16
67572;SHT31;54397;47.506;19.158;2023-04-24T18:20:39;15.37;83.57
67572;SHT31;54397;47.506;19.158;2023-04-24T18:24:01;15.43;83.43
67572;SHT31;54397;47.506;19.158;2023-04-24T18:27:23;15.51;84.19
67572;SHT31;54397;47.506;19.158;2023-04-24T18:30:51;15.74;87.78
67572;SHT31;54397;47.506;19.158;2023-04-24T18:34:17;15.78;83.42
67572;SHT31;54397;47.506;19.158;2023-04-24T18:37:41;15.46;83.85
67572;SHT31;54397;47.506;19.158;2023-04-24T18:41:05;15.91;86.18
67572;SHT31;54397;47.506;19.158;2023-04-24T18:44:27;16.05;84.62
67572;SHT31;54397;47.506;19.158;2023-04-24T18:47:48;16.05;80.24
67572;SHT31;54397;47.506;19.158;2023-04-24T18:51:13;15.87;80.68
67572;SHT31;54397;47.506;19.158;2023-04-24T18:54:35;15.66;80.34
67572;SHT31;54397;47.506;19.158;2023-04-24T18:57:59;15.57;80.63
67572;SHT31;54397;47.506;19.158;2023-04-24T19:01:23;15.56;80.53
67572;SHT31;54397;47.506;19.158;2023-04-24T19:04:45;15.29;81.20
67572;SHT31;54397;47.506;19.158;2023-04-24T19:08:07;15.19;81.83
67572;SHT31;54397;47.506;19.158;2023-04-24T19:11:28;15.08;83.50
67572;SHT31;54397;47.506;19.158;2023-04-24T19:14:50;15.02;83.91
67572;SHT31;54397;47.506;19.158;2023-04-24T19:18:16;15.08;84.32
67572;SHT31;54397;47.506;19.158;2023-04-24T19:21:38;14.96;84.64
67572;SHT31;54397;47.506;19.158;2023-04-24T19:25:02;15.13;83.50
67572;SHT31;54397;47.506;19.158;2023-04-24T19:28:28;15.23;82.53
67572;SHT31;54397;47.506;19.158;2023-04-24T19:31:53;15.25;81.43
67572;SHT31;54397;47.506;19.158;2023-04-24T19:35:19;15.30;81.10
67572;SHT31;54397;47.506;19.158;2023-04-24T19:38:41;15.15;80.87
67572;SHT31;54397;47.506;19.158;2023-04-24T19:42:04;14.81;81.12
67572;SHT31;54397;47.506;19.158;2023-04-24T19:45:28;15.05;80.70
67572;SHT31;54397;47.506;19.158;2023-04-24T19:48:51;14.75;80.85
67572;SHT31;54397;47.506;19.158;2023-04-24T19:52:13;14.91;81.21
67572;SHT31;54397;47.506;19.158;2023-04-24T19:55:35;15.00;80.77
67572;SHT31;54397;47.506;19.158;2023-04-24T19:58:57;14.43;80.55
67572;SHT31;54397;47.506;19.158;2023-04-24T20:02:19;14.85;80.33
67572;SHT31;54397;47.506;19.158;2023-04-24T20:05:45;14.87;81.11
67572;SHT31;54397;47.506;19.158;2023-04-24T20:09:07;14.74;82.08
67572;SHT31;54397;47.506;19.158;2023-04-24T20:12:28;14.70;83.01
67572;SHT31;54397;47.506;19.158;2023-04-24T20:15:50;14.71;82.85
67572;SHT31;54397;47.506;19.158;2023-04-24T20:19:14;14.64;83.68
67572;SHT31;54397;47.506;19.158;2023-04-24T20:22:36;14.60;81.53
67572;SHT31;54397;47.506;19.158;2023-04-24T20:26:01;14.70;81.97
67572;SHT31;54397;47.506;19.158;2023-04-24T20:29:25;14.65;80.85
67572;SHT31;54397;47.506;19.158;2023-04-24T20:32:51;14.79;80.90
67572;SHT31;54397;47.506;19.158;2023-04-24T20:36:13;14.64;80.57
67572;SHT31;54397;47.506;19.158;2023-04-24T20:39:37;14.92;80.36
67572;SHT31;54397;47.506;19.158;2023-04-24T20:42:59;14.85;80.94
67572;SHT31;54397;47.506;19.158;2023-04-24T20:46:21;14.92;80.44
67572;SHT31;54397;47.506;19.158;2023-04-24T20:49:45;14.65;80.37
67572;SHT31;54397;47.506;19.158;2023-04-24T20:53:06;14.58;80.93
67572;SHT31;54397;47.506;19.158;2023-04-24T20:56:29;14.75;80.71
67572;SHT31;54397;47.506;19.158;2023-04-24T20:59:53;14.63;81.27
67572;SHT31;54397;47.506;19.158;2023-04-24T21:03:15;14.75;80.90
67572;SHT31;54397;47.506;19.158;2023-04-24T21:06:37;14.72;80.76
67572;SHT31;54397;47.506;19.158;2023-04-24T21:10:01;14.70;80.49